sensor_id;sensor_type;location;lat;lon;timestamp;temperature;humidity
431;DHT22;202;48.764;9.172;2022-10-14T00:00:43;15.80;71.00
431;DHT22;202;48.764;9.172;2022-10-14T00:03:10;15.80;70.90
431;DHT22;202;48.764;9.172;2022-10-14T00:05:40;15.70;71.40
431;DHT22;202;48.764;9.172;2022-10-14T00:08:08;15.80;72.00
431;DHT22;202;48.764;9.172;2022-10-14T00:10:39;15.80;71.60
431;DHT22;202;48.764;9.172;2022-10-14T00:13:07;15.70;71.30
431;DHT22;202;48.764;9.172;2022-10-14T00:15:37;15.60;73.00
431;DHT22;202;48.764;9.172;2022-10-14T00:18:05;15.60;73.00
431;DHT22;202;48.764;9.172;2022-10-14T00:20:31;15.70;73.10
431;DHT22;202;48.764;9.172;2022-10-14T00:22:58;15.70;73.10
431;DHT22;202;48.764;9.172;2022-10-14T00:25:25;15.60;73.00
431;DHT22;202;48.764;9.172;2022-10-14T00:27:57;15.70;72.30
431;DHT22;202;48.764;9.172;2022-10-14T00:30:28;15.70;72.40
431;DHT22;202;48.764;9.172;2022-10-14T00:32:54;15.70;72.10
431;DHT22;202;48.764;9.172;2022-10-14T00:35:21;15.70;70.90
431;DHT22;202;48.764;9.172;2022-10-14T00:37:48;15.80;70.70
431;DHT22;202;48.764;9.172;2022-10-14T00:40:15;15.80;69.40
431;DHT22;202;48.764;9.172;2022-10-14T00:42:42;15.80;69.90
431;DHT22;202;48.764;9.172;2022-10-14T00:45:14;15.80;69.60
431;DHT22;202;48.764;9.172;2022-10-14T00:47:41;15.70;69.80
431;DHT22;202;48.764;9.172;2022-10-14T00:50:11;15.60;70.00
431;DHT22;202;48.764;9.172;2022-10-14T00:52:40;15.60;71.10
431;DHT22;202;48.764;9.172;2022-10-14T00:55:11;15.50;71.70
431;DHT22;202;48.764;9.172;2022-10-14T00:57:39;15.40;72.30
431;DHT22;202;48.764;9.172;2022-10-14T01:00:08;15.50;72.20
431;DHT22;202;48.764;9.172;2022-10-14T01:02:37;15.30;72.80
431;DHT22;202;48.764;9.172;2022-10-14T01:05:07;15.40;72.80
431;DHT22;202;48.764;9.172;2022-10-14T01:07:55;15.50;72.10
431;DHT22;202;48.764;9.172;2022-10-14T01:10:30;15.30;73.20
431;DHT22;202;48.764;9.172;2022-10-14T01:13:08;15.20;73.10
431;DHT22;202;48.764;9.172;2022-10-14T01:15:45;15.40;72.80
431;DHT22;202;48.764;9.172;2022-10-14T01:18:23;15.30;72.80
431;DHT22;202;48.764;9.172;2022-10-14T01:21:08;15.30;73.10
431;DHT22;202;48.764;9.172;2022-10-14T01:27:09;15.40;73.20
431;DHT22;202;48.764;9.172;2022-10-14T01:30:05;15.50;72.90
431;DHT22;202;48.764;9.172;2022-10-14T01:32:36;15.50;72.90
431;DHT22;202;48.764;9.172;2022-10-14T01:35:10;15.50;73.50
431;DHT22;202;48.764;9.172;2022-10-14T01:37:54;15.50;73.20
431;DHT22;202;48.764;9.172;2022-10-14T01:40:28;15.50;72.90
431;DHT22;202;48.764;9.172;2022-10-14T01:42:59;15.60;73.60
431;DHT22;202;48.764;9.172;2022-10-14T01:45:29;15.60;73.20
431;DHT22;202;48.764;9.172;2022-10-14T01:47:57;15.60;73.50
431;DHT22;202;48.764;9.172;2022-10-14T01:50:27;15.70;73.80
431;DHT22;202;48.764;9.172;2022-10-14T01:52:58;15.70;74.50
431;DHT22;202;48.764;9.172;2022-10-14T01:55:29;15.70;75.00
431;DHT22;202;48.764;9.172;2022-10-14T01:57:59;15.70;74.70
431;DHT22;202;48.764;9.172;2022-10-14T02:00:28;15.70;75.70
431;DHT22;202;48.764;9.172;2022-10-14T02:02:55;15.80;75.30
431;DHT22;202;48.764;9.172;2022-10-14T02:05:27;15.80;76.00
431;DHT22;202;48.764;9.172;2022-10-14T02:07:57;15.80;76.20
431;DHT22;202;48.764;9.172;2022-10-14T02:10:36;15.70;76.30
431;DHT22;202;48.764;9.172;2022-10-14T02:13:16;15.70;77.10
431;DHT22;202;48.764;9.172;2022-10-14T02:16:00;15.70;77.90
431;DHT22;202;48.764;9.172;2022-10-14T02:18:34;15.60;79.00
431;DHT22;202;48.764;9.172;2022-10-14T02:21:08;15.60;78.80
431;DHT22;202;48.764;9.172;2022-10-14T02:23:41;15.60;79.20
431;DHT22;202;48.764;9.172;2022-10-14T02:26:13;15.60;78.80
431;DHT22;202;48.764;9.172;2022-10-14T02:28:43;15.70;78.30
431;DHT22;202;48.764;9.172;2022-10-14T02:31:15;15.60;79.30
431;DHT22;202;48.764;9.172;2022-10-14T02:33:48;15.60;78.60
431;DHT22;202;48.764;9.172;2022-10-14T02:36:19;15.60;78.10
431;DHT22;202;48.764;9.172;2022-10-14T02:38:47;15.50;80.40
431;DHT22;202;48.764;9.172;2022-10-14T02:41:18;15.50;82.40
431;DHT22;202;48.764;9.172;2022-10-14T02:43:47;15.50;82.50
431;DHT22;202;48.764;9.172;2022-10-14T02:46:22;15.40;83.30
431;DHT22;202;48.764;9.172;2022-10-14T02:48:53;15.30;85.00
431;DHT22;202;48.764;9.172;2022-10-14T02:51:23;15.20;85.00
431;DHT22;202;48.764;9.172;2022-10-14T02:53:51;15.10;85.40
431;DHT22;202;48.764;9.172;2022-10-14T02:56:17;15.10;85.70
431;DHT22;202;48.764;9.172;2022-10-14T02:58:47;15.00;86.00
431;DHT22;202;48.764;9.172;2022-10-14T03:01:14;15.00;85.70
431;DHT22;202;48.764;9.172;2022-10-14T03:03:43;14.90;85.70
431;DHT22;202;48.764;9.172;2022-10-14T03:06:10;15.00;86.60
431;DHT22;202;48.764;9.172;2022-10-14T03:08:37;14.90;87.20
431;DHT22;202;48.764;9.172;2022-10-14T03:11:04;14.90;86.70
431;DHT22;202;48.764;9.172;2022-10-14T03:13:31;14.90;87.10
431;DHT22;202;48.764;9.172;2022-10-14T03:15:58;14.90;88.40
431;DHT22;202;48.764;9.172;2022-10-14T03:18:25;15.00;88.30
431;DHT22;202;48.764;9.172;2022-10-14T03:20:55;15.10;86.90
431;DHT22;202;48.764;9.172;2022-10-14T03:23:25;15.00;88.50
431;DHT22;202;48.764;9.172;2022-10-14T03:25:52;15.10;88.10
431;DHT22;202;48.764;9.172;2022-10-14T03:28:19;15.10;88.30
431;DHT22;202;48.764;9.172;2022-10-14T03:30:48;15.10;88.00
431;DHT22;202;48.764;9.172;2022-10-14T03:33:15;15.00;89.40
431;DHT22;202;48.764;9.172;2022-10-14T03:35:42;15.00;87.90
431;DHT22;202;48.764;9.172;2022-10-14T03:38:10;15.00;88.40
431;DHT22;202;48.764;9.172;2022-10-14T03:40:39;15.00;89.80
431;DHT22;202;48.764;9.172;2022-10-14T03:43:06;15.10;88.30
431;DHT22;202;48.764;9.172;2022-10-14T03:45:33;15.20;89.10
431;DHT22;202;48.764;9.172;2022-10-14T03:48:00;15.10;87.50
431;DHT22;202;48.764;9.172;2022-10-14T03:50:27;15.10;88.30
431;DHT22;202;48.764;9.172;2022-10-14T03:53:01;15.10;89.30
431;DHT22;202;48.764;9.172;2022-10-14T03:55:32;15.10;89.70
431;DHT22;202;48.764;9.172;2022-10-14T03:57:59;15.20;89.70
431;DHT22;202;48.764;9.172;2022-10-14T04:00:26;15.20;89.80
431;DHT22;202;48.764;9.172;2022-10-14T04:02:55;15.20;90.20
431;DHT22;202;48.764;9.172;2022-10-14T04:05:22;15.20;90.00
431;DHT22;202;48.764;9.172;2022-10-14T04:07:49;15.20;89.60
431;DHT22;202;48.764;9.172;2022-10-14T04:10:16;15.20;89.50
431;DHT22;202;48.764;9.172;2022-10-14T04:12:44;15.20;89.30
431;DHT22;202;48.764;9.172;2022-10-14T04:15:13;15.10;88.00
431;DHT22;202;48.764;9.172;2022-10-14T04:17:40;15.00;89.30
431;DHT22;202;48.764;9.172;2022-10-14T04:20:09;15.10;88.40
431;DHT22;202;48.764;9.172;2022-10-14T04:22:46;15.10;89.50
431;DHT22;202;48.764;9.172;2022-10-14T04:25:15;15.00;89.30
431;DHT22;202;48.764;9.172;2022-10-14T04:27:44;15.00;89.00
431;DHT22;202;48.764;9.172;2022-10-14T04:33:23;15.00;88.60
431;DHT22;202;48.764;9.172;2022-10-14T04:36:03;15.10;87.90
431;DHT22;202;48.764;9.172;2022-10-14T04:38:47;15.20;87.70
431;DHT22;202;48.764;9.172;2022-10-14T04:41:21;15.20;85.50
431;DHT22;202;48.764;9.172;2022-10-14T04:44:00;15.20;84.80
431;DHT22;202;48.764;9.172;2022-10-14T04:46:42;15.20;86.50
431;DHT22;202;48.764;9.172;2022-10-14T04:49:45;15.20;86.80
431;DHT22;202;48.764;9.172;2022-10-14T04:52:26;15.10;86.70
431;DHT22;202;48.764;9.172;2022-10-14T04:55:06;15.20;86.80
431;DHT22;202;48.764;9.172;2022-10-14T05:01:10;15.20;86.80
431;DHT22;202;48.764;9.172;2022-10-14T05:03:54;15.20;86.00
431;DHT22;202;48.764;9.172;2022-10-14T05:06:29;15.20;85.30
431;DHT22;202;48.764;9.172;2022-10-14T05:09:09;15.20;86.30
431;DHT22;202;48.764;9.172;2022-10-14T05:11:48;15.20;86.80
431;DHT22;202;48.764;9.172;2022-10-14T05:14:31;15.20;86.40
431;DHT22;202;48.764;9.172;2022-10-14T05:17:13;15.20;85.60
431;DHT22;202;48.764;9.172;2022-10-14T05:19:47;15.10;85.10
431;DHT22;202;48.764;9.172;2022-10-14T05:22:35;15.10;85.80
431;DHT22;202;48.764;9.172;2022-10-14T05:25:13;15.20;84.70
431;DHT22;202;48.764;9.172;2022-10-14T05:27:51;15.20;85.30
431;DHT22;202;48.764;9.172;2022-10-14T05:37:36;15.10;86.70
431;DHT22;202;48.764;9.172;2022-10-14T05:40:11;15.00;85.50
431;DHT22;202;48.764;9.172;2022-10-14T05:42:47;15.00;86.10
431;DHT22;202;48.764;9.172;2022-10-14T05:45:18;14.90;86.50
431;DHT22;202;48.764;9.172;2022-10-14T05:47:47;15.00;86.60
431;DHT22;202;48.764;9.172;2022-10-14T05:50:16;14.90;86.50
431;DHT22;202;48.764;9.172;2022-10-14T05:52:54;15.00;85.70
431;DHT22;202;48.764;9.172;2022-10-14T05:55:29;15.00;85.60
431;DHT22;202;48.764;9.172;2022-10-14T05:57:56;15.00;85.00
431;DHT22;202;48.764;9.172;2022-10-14T06:00:33;15.00;85.70
431;DHT22;202;48.764;9.172;2022-10-14T06:03:11;15.00;84.70
431;DHT22;202;48.764;9.172;2022-10-14T06:05:47;15.00;84.20
431;DHT22;202;48.764;9.172;2022-10-14T06:08:29;15.10;84.80
431;DHT22;202;48.764;9.172;2022-10-14T06:11:13;15.00;84.70
431;DHT22;202;48.764;9.172;2022-10-14T06:13:40;15.10;84.70
431;DHT22;202;48.764;9.172;2022-10-14T06:16:08;15.20;84.30
431;DHT22;202;48.764;9.172;2022-10-14T06:18:40;15.20;83.80
431;DHT22;202;48.764;9.172;2022-10-14T06:21:08;15.30;83.40
431;DHT22;202;48.764;9.172;2022-10-14T06:23:38;15.30;83.40
431;DHT22;202;48.764;9.172;2022-10-14T06:26:06;15.30;82.20
431;DHT22;202;48.764;9.172;2022-10-14T06:28:37;15.20;83.80
431;DHT22;202;48.764;9.172;2022-10-14T06:31:23;15.30;83.60
431;DHT22;202;48.764;9.172;2022-10-14T06:34:04;15.30;83.10
431;DHT22;202;48.764;9.172;2022-10-14T06:36:31;15.40;82.40
431;DHT22;202;48.764;9.172;2022-10-14T06:39:00;15.40;81.50
431;DHT22;202;48.764;9.172;2022-10-14T06:41:28;15.30;81.60
431;DHT22;202;48.764;9.172;2022-10-14T06:43:56;15.10;84.40
431;DHT22;202;48.764;9.172;2022-10-14T06:46:23;15.20;85.00
431;DHT22;202;48.764;9.172;2022-10-14T06:48:50;15.20;84.40
431;DHT22;202;48.764;9.172;2022-10-14T06:51:19;15.10;84.70
431;DHT22;202;48.764;9.172;2022-10-14T06:53:49;15.20;85.20
431;DHT22;202;48.764;9.172;2022-10-14T06:56:30;15.30;84.90
431;DHT22;202;48.764;9.172;2022-10-14T06:59:00;15.40;84.20
431;DHT22;202;48.764;9.172;2022-10-14T07:01:28;15.40;82.90
431;DHT22;202;48.764;9.172;2022-10-14T07:03:55;15.50;84.30
431;DHT22;202;48.764;9.172;2022-10-14T07:06:26;15.50;83.00
431;DHT22;202;48.764;9.172;2022-10-14T07:09:01;15.60;82.50
431;DHT22;202;48.764;9.172;2022-10-14T07:11:31;15.60;80.50
431;DHT22;202;48.764;9.172;2022-10-14T07:13:58;15.40;82.30
431;DHT22;202;48.764;9.172;2022-10-14T07:16:25;15.40;82.30
431;DHT22;202;48.764;9.172;2022-10-14T07:18:52;15.40;82.30
431;DHT22;202;48.764;9.172;2022-10-14T07:21:19;15.40;82.30
431;DHT22;202;48.764;9.172;2022-10-14T07:23:47;15.50;82.40
431;DHT22;202;48.764;9.172;2022-10-14T07:26:27;15.50;82.30
431;DHT22;202;48.764;9.172;2022-10-14T07:29:25;15.50;81.80
431;DHT22;202;48.764;9.172;2022-10-14T07:31:56;15.50;82.40
431;DHT22;202;48.764;9.172;2022-10-14T07:35:08;15.60;81.60
431;DHT22;202;48.764;9.172;2022-10-14T07:38:13;15.70;78.90
431;DHT22;202;48.764;9.172;2022-10-14T07:41:11;15.50;81.50
431;DHT22;202;48.764;9.172;2022-10-14T07:47:14;15.60;82.00
431;DHT22;202;48.764;9.172;2022-10-14T07:49:48;15.80;80.80
431;DHT22;202;48.764;9.172;2022-10-14T07:52:19;15.80;80.60
431;DHT22;202;48.764;9.172;2022-10-14T07:55:16;15.90;79.60
431;DHT22;202;48.764;9.172;2022-10-14T07:57:51;15.90;78.10
431;DHT22;202;48.764;9.172;2022-10-14T08:00:20;15.90;78.10
431;DHT22;202;48.764;9.172;2022-10-14T08:03:01;16.00;76.70
431;DHT22;202;48.764;9.172;2022-10-14T08:05:37;16.00;74.40
431;DHT22;202;48.764;9.172;2022-10-14T08:08:04;16.00;75.90
431;DHT22;202;48.764;9.172;2022-10-14T08:10:31;15.90;75.00
431;DHT22;202;48.764;9.172;2022-10-14T08:13:00;15.90;75.60
431;DHT22;202;48.764;9.172;2022-10-14T08:15:27;15.90;75.40
431;DHT22;202;48.764;9.172;2022-10-14T08:17:57;15.90;75.00
431;DHT22;202;48.764;9.172;2022-10-14T08:20:27;15.90;75.80
431;DHT22;202;48.764;9.172;2022-10-14T08:23:05;16.00;75.70
431;DHT22;202;48.764;9.172;2022-10-14T08:31:04;16.00;75.20
431;DHT22;202;48.764;9.172;2022-10-14T08:44:46;16.40;70.70
431;DHT22;202;48.764;9.172;2022-10-14T08:47:27;16.30;70.80
431;DHT22;202;48.764;9.172;2022-10-14T08:50:30;16.30;72.20
431;DHT22;202;48.764;9.172;2022-10-14T08:53:05;16.40;71.10
431;DHT22;202;48.764;9.172;2022-10-14T08:55:36;16.30;70.70
431;DHT22;202;48.764;9.172;2022-10-14T08:58:10;16.40;70.90
431;DHT22;202;48.764;9.172;2022-10-14T09:00:44;16.50;70.90
431;DHT22;202;48.764;9.172;2022-10-14T09:03:19;16.40;70.20
431;DHT22;202;48.764;9.172;2022-10-14T09:05:52;16.50;71.00
431;DHT22;202;48.764;9.172;2022-10-14T09:08:25;16.50;70.10
431;DHT22;202;48.764;9.172;2022-10-14T09:11:01;16.70;69.30
431;DHT22;202;48.764;9.172;2022-10-14T09:13:31;16.50;69.00
431;DHT22;202;48.764;9.172;2022-10-14T09:16:04;16.60;69.10
431;DHT22;202;48.764;9.172;2022-10-14T09:18:35;16.60;69.20
431;DHT22;202;48.764;9.172;2022-10-14T09:21:24;16.60;67.70
431;DHT22;202;48.764;9.172;2022-10-14T09:23:56;16.70;67.70
431;DHT22;202;48.764;9.172;2022-10-14T09:26:27;16.80;67.30
431;DHT22;202;48.764;9.172;2022-10-14T09:28:55;16.90;67.00
431;DHT22;202;48.764;9.172;2022-10-14T09:31:24;16.70;66.60
431;DHT22;202;48.764;9.172;2022-10-14T09:33:51;16.80;66.90
431;DHT22;202;48.764;9.172;2022-10-14T09:36:20;16.80;66.30
431;DHT22;202;48.764;9.172;2022-10-14T09:38:49;16.90;66.40
431;DHT22;202;48.764;9.172;2022-10-14T09:48:26;17.00;66.00
431;DHT22;202;48.764;9.172;2022-10-14T09:51:10;17.20;65.20
431;DHT22;202;48.764;9.172;2022-10-14T09:53:50;17.20;64.30
431;DHT22;202;48.764;9.172;2022-10-14T09:56:29;17.20;63.30
431;DHT22;202;48.764;9.172;2022-10-14T09:59:16;17.40;62.60
431;DHT22;202;48.764;9.172;2022-10-14T10:01:55;17.40;63.30
431;DHT22;202;48.764;9.172;2022-10-14T10:04:31;17.50;63.40
431;DHT22;202;48.764;9.172;2022-10-14T10:07:03;17.50;62.80
431;DHT22;202;48.764;9.172;2022-10-14T10:09:31;17.50;64.50
431;DHT22;202;48.764;9.172;2022-10-14T10:12:21;17.60;63.90
431;DHT22;202;48.764;9.172;2022-10-14T10:14:55;17.60;62.40
431;DHT22;202;48.764;9.172;2022-10-14T10:17:24;17.80;62.80
431;DHT22;202;48.764;9.172;2022-10-14T10:20:07;17.90;60.40
431;DHT22;202;48.764;9.172;2022-10-14T10:22:34;17.90;62.10
431;DHT22;202;48.764;9.172;2022-10-14T10:25:24;18.10;61.20
431;DHT22;202;48.764;9.172;2022-10-14T10:27:53;18.30;60.70
431;DHT22;202;48.764;9.172;2022-10-14T10:30:26;18.30;60.70
431;DHT22;202;48.764;9.172;2022-10-14T10:33:10;18.50;60.00
431;DHT22;202;48.764;9.172;2022-10-14T10:35:58;18.60;59.40
431;DHT22;202;48.764;9.172;2022-10-14T10:38:32;18.60;58.50
431;DHT22;202;48.764;9.172;2022-10-14T10:41:16;18.40;59.20
431;DHT22;202;48.764;9.172;2022-10-14T10:44:25;18.40;60.10
431;DHT22;202;48.764;9.172;2022-10-14T10:47:07;18.50;59.10
431;DHT22;202;48.764;9.172;2022-10-14T10:49:53;18.30;58.70
431;DHT22;202;48.764;9.172;2022-10-14T10:52:32;18.20;59.10
431;DHT22;202;48.764;9.172;2022-10-14T10:55:09;18.30;59.10
431;DHT22;202;48.764;9.172;2022-10-14T10:57:55;18.20;59.60
431;DHT22;202;48.764;9.172;2022-10-14T11:00:42;18.20;58.60
431;DHT22;202;48.764;9.172;2022-10-14T11:03:41;18.30;58.90
431;DHT22;202;48.764;9.172;2022-10-14T11:06:24;18.20;59.30
431;DHT22;202;48.764;9.172;2022-10-14T11:09:17;18.20;59.80
431;DHT22;202;48.764;9.172;2022-10-14T11:12:09;18.20;60.20
431;DHT22;202;48.764;9.172;2022-10-14T11:17:40;18.30;60.70
431;DHT22;202;48.764;9.172;2022-10-14T11:23:20;18.10;66.30
431;DHT22;202;48.764;9.172;2022-10-14T11:26:02;18.00;69.10
431;DHT22;202;48.764;9.172;2022-10-14T11:28:44;17.90;69.20
431;DHT22;202;48.764;9.172;2022-10-14T11:31:20;17.90;71.20
431;DHT22;202;48.764;9.172;2022-10-14T11:34:06;18.00;70.40
431;DHT22;202;48.764;9.172;2022-10-14T11:36:47;17.90;70.30
431;DHT22;202;48.764;9.172;2022-10-14T11:39:37;17.90;70.90
431;DHT22;202;48.764;9.172;2022-10-14T11:42:32;17.80;70.20
431;DHT22;202;48.764;9.172;2022-10-14T11:48:25;17.90;69.40
431;DHT22;202;48.764;9.172;2022-10-14T11:50:56;17.80;72.60
431;DHT22;202;48.764;9.172;2022-10-14T11:53:31;17.90;71.50
431;DHT22;202;48.764;9.172;2022-10-14T11:56:07;18.00;69.90
431;DHT22;202;48.764;9.172;2022-10-14T11:58:45;18.20;69.20
431;DHT22;202;48.764;9.172;2022-10-14T12:01:16;18.20;67.50
431;DHT22;202;48.764;9.172;2022-10-14T12:03:50;18.40;69.10
431;DHT22;202;48.764;9.172;2022-10-14T12:06:24;18.50;67.10
431;DHT22;202;48.764;9.172;2022-10-14T12:08:55;18.50;66.70
431;DHT22;202;48.764;9.172;2022-10-14T12:11:29;18.50;66.50
431;DHT22;202;48.764;9.172;2022-10-14T12:14:05;18.40;66.70
431;DHT22;202;48.764;9.172;2022-10-14T12:16:40;18.40;66.70
431;DHT22;202;48.764;9.172;2022-10-14T12:19:10;18.30;65.30
431;DHT22;202;48.764;9.172;2022-10-14T12:21:44;18.30;65.30
431;DHT22;202;48.764;9.172;2022-10-14T12:24:15;18.30;67.30
431;DHT22;202;48.764;9.172;2022-10-14T12:26:49;18.40;67.00
431;DHT22;202;48.764;9.172;2022-10-14T12:29:20;18.40;65.90
431;DHT22;202;48.764;9.172;2022-10-14T12:31:48;18.50;65.60
431;DHT22;202;48.764;9.172;2022-10-14T12:34:30;18.60;67.10
431;DHT22;202;48.764;9.172;2022-10-14T12:37:01;18.60;64.30
431;DHT22;202;48.764;9.172;2022-10-14T12:39:49;18.60;64.70
431;DHT22;202;48.764;9.172;2022-10-14T12:42:20;18.80;64.20
431;DHT22;202;48.764;9.172;2022-10-14T12:44:52;18.80;63.30
431;DHT22;202;48.764;9.172;2022-10-14T12:47:25;18.90;64.20
431;DHT22;202;48.764;9.172;2022-10-14T12:49:57;18.90;63.00
431;DHT22;202;48.764;9.172;2022-10-14T12:52:29;19.00;64.00
431;DHT22;202;48.764;9.172;2022-10-14T12:54:57;19.10;63.30
431;DHT22;202;48.764;9.172;2022-10-14T12:57:30;19.10;61.50
431;DHT22;202;48.764;9.172;2022-10-14T13:00:03;19.10;62.80
431;DHT22;202;48.764;9.172;2022-10-14T13:02:34;19.00;61.40
431;DHT22;202;48.764;9.172;2022-10-14T13:05:05;19.00;61.40
431;DHT22;202;48.764;9.172;2022-10-14T13:07:42;19.00;62.30
431;DHT22;202;48.764;9.172;2022-10-14T13:10:38;19.00;62.50
431;DHT22;202;48.764;9.172;2022-10-14T13:16:57;19.00;62.60
431;DHT22;202;48.764;9.172;2022-10-14T13:19:43;19.10;61.90
431;DHT22;202;48.764;9.172;2022-10-14T13:22:37;19.10;61.50
431;DHT22;202;48.764;9.172;2022-10-14T13:25:16;19.00;61.40
431;DHT22;202;48.764;9.172;2022-10-14T13:28:02;19.00;62.10
431;DHT22;202;48.764;9.172;2022-10-14T13:30:38;19.00;61.40
431;DHT22;202;48.764;9.172;2022-10-14T13:33:18;19.00;61.40
431;DHT22;202;48.764;9.172;2022-10-14T13:35:52;19.00;61.40
431;DHT22;202;48.764;9.172;2022-10-14T13:38:22;19.10;63.30
431;DHT22;202;48.764;9.172;2022-10-14T13:40:51;19.20;63.10
431;DHT22;202;48.764;9.172;2022-10-14T13:43:22;19.20;62.70
431;DHT22;202;48.764;9.172;2022-10-14T13:45:55;19.30;61.70
431;DHT22;202;48.764;9.172;2022-10-14T13:48:30;19.30;59.80
431;DHT22;202;48.764;9.172;2022-10-14T13:51:14;19.20;60.10
431;DHT22;202;48.764;9.172;2022-10-14T13:53:49;19.00;61.40
431;DHT22;202;48.764;9.172;2022-10-14T13:56:20;18.90;61.50
431;DHT22;202;48.764;9.172;2022-10-14T13:58:48;19.00;61.40
431;DHT22;202;48.764;9.172;2022-10-14T14:01:18;18.90;62.10
431;DHT22;202;48.764;9.172;2022-10-14T14:03:54;18.90;62.80
431;DHT22;202;48.764;9.172;2022-10-14T14:06:22;19.00;61.40
431;DHT22;202;48.764;9.172;2022-10-14T14:08:54;19.00;61.40
431;DHT22;202;48.764;9.172;2022-10-14T14:11:23;19.00;62.30
431;DHT22;202;48.764;9.172;2022-10-14T14:13:55;19.00;63.60
431;DHT22;202;48.764;9.172;2022-10-14T14:16:27;19.00;66.50
431;DHT22;202;48.764;9.172;2022-10-14T14:18:57;18.90;69.80
431;DHT22;202;48.764;9.172;2022-10-14T14:21:27;18.70;72.80
431;DHT22;202;48.764;9.172;2022-10-14T14:23:56;18.60;74.80
431;DHT22;202;48.764;9.172;2022-10-14T14:26:28;18.50;78.30
431;DHT22;202;48.764;9.172;2022-10-14T14:53:06;18.10;84.40
431;DHT22;202;48.764;9.172;2022-10-14T14:56:26;18.10;85.00
431;DHT22;202;48.764;9.172;2022-10-14T14:59:38;18.10;84.90
431;DHT22;202;48.764;9.172;2022-10-14T15:05:08;18.10;83.70
431;DHT22;202;48.764;9.172;2022-10-14T15:07:36;18.10;84.60
431;DHT22;202;48.764;9.172;2022-10-14T15:10:18;18.20;80.80
431;DHT22;202;48.764;9.172;2022-10-14T15:12:52;18.20;81.80
431;DHT22;202;48.764;9.172;2022-10-14T15:15:29;18.20;80.30
431;DHT22;202;48.764;9.172;2022-10-14T15:18:11;18.20;79.30
431;DHT22;202;48.764;9.172;2022-10-14T15:20:40;18.10;79.50
431;DHT22;202;48.764;9.172;2022-10-14T15:23:36;18.10;77.80
431;DHT22;202;48.764;9.172;2022-10-14T15:26:04;18.00;79.10
431;DHT22;202;48.764;9.172;2022-10-14T15:28:32;18.00;80.10
431;DHT22;202;48.764;9.172;2022-10-14T15:31:12;18.00;80.30
431;DHT22;202;48.764;9.172;2022-10-14T15:33:40;18.00;80.50
431;DHT22;202;48.764;9.172;2022-10-14T15:36:09;18.00;80.80
431;DHT22;202;48.764;9.172;2022-10-14T15:38:37;17.90;81.10
431;DHT22;202;48.764;9.172;2022-10-14T15:41:04;18.00;80.60
431;DHT22;202;48.764;9.172;2022-10-14T15:43:31;18.00;80.20
431;DHT22;202;48.764;9.172;2022-10-14T15:46:01;18.10;80.20
431;DHT22;202;48.764;9.172;2022-10-14T15:48:46;18.10;80.20
431;DHT22;202;48.764;9.172;2022-10-14T15:51:16;18.00;80.60
431;DHT22;202;48.764;9.172;2022-10-14T15:54:04;18.10;83.20
431;DHT22;202;48.764;9.172;2022-10-14T15:56:39;18.00;82.30
431;DHT22;202;48.764;9.172;2022-10-14T15:59:10;17.90;83.00
431;DHT22;202;48.764;9.172;2022-10-14T16:08:34;17.90;84.00
431;DHT22;202;48.764;9.172;2022-10-14T16:11:30;17.90;82.80
431;DHT22;202;48.764;9.172;2022-10-14T16:14:17;17.80;84.60
431;DHT22;202;48.764;9.172;2022-10-14T16:17:04;17.70;84.50
431;DHT22;202;48.764;9.172;2022-10-14T16:20:02;17.70;85.30
431;DHT22;202;48.764;9.172;2022-10-14T16:22:37;17.80;86.20
431;DHT22;202;48.764;9.172;2022-10-14T16:25:42;17.80;83.90
431;DHT22;202;48.764;9.172;2022-10-14T16:28:52;17.80;84.90
431;DHT22;202;48.764;9.172;2022-10-14T16:31:33;17.70;83.20
431;DHT22;202;48.764;9.172;2022-10-14T16:34:10;17.60;84.80
431;DHT22;202;48.764;9.172;2022-10-14T16:37:20;17.40;88.20
431;DHT22;202;48.764;9.172;2022-10-14T16:40:01;17.50;87.50
431;DHT22;202;48.764;9.172;2022-10-14T16:42:53;17.50;88.00
431;DHT22;202;48.764;9.172;2022-10-14T16:47:52;17.50;88.50
431;DHT22;202;48.764;9.172;2022-10-14T16:49:02;17.50;89.00
431;DHT22;202;48.764;9.172;2022-10-14T16:52:03;17.40;88.10
431;DHT22;202;48.764;9.172;2022-10-14T16:55:21;17.40;90.10
431;DHT22;202;48.764;9.172;2022-10-14T17:05:24;17.50;87.80
431;DHT22;202;48.764;9.172;2022-10-14T17:08:01;17.50;87.00
431;DHT22;202;48.764;9.172;2022-10-14T17:31:19;17.20;90.60
431;DHT22;202;48.764;9.172;2022-10-14T17:34:37;17.20;90.80
431;DHT22;202;48.764;9.172;2022-10-14T17:41:05;17.30;90.20
431;DHT22;202;48.764;9.172;2022-10-14T17:43:41;17.40;90.10
431;DHT22;202;48.764;9.172;2022-10-14T17:46:17;17.30;90.00
431;DHT22;202;48.764;9.172;2022-10-14T17:49:25;17.20;88.70
431;DHT22;202;48.764;9.172;2022-10-14T17:52:23;17.20;90.20
431;DHT22;202;48.764;9.172;2022-10-14T17:54:55;17.30;88.60
431;DHT22;202;48.764;9.172;2022-10-14T17:57:32;17.20;87.20
431;DHT22;202;48.764;9.172;2022-10-14T18:00:12;17.10;87.00
431;DHT22;202;48.764;9.172;2022-10-14T18:02:52;17.20;88.70
431;DHT22;202;48.764;9.172;2022-10-14T18:05:25;17.20;88.70
431;DHT22;202;48.764;9.172;2022-10-14T18:08:06;17.20;88.40
431;DHT22;202;48.764;9.172;2022-10-14T18:10:40;17.20;88.80
431;DHT22;202;48.764;9.172;2022-10-14T18:13:27;17.20;88.70
431;DHT22;202;48.764;9.172;2022-10-14T18:18:49;17.10;89.00
431;DHT22;202;48.764;9.172;2022-10-14T18:21:37;17.10;88.60
431;DHT22;202;48.764;9.172;2022-10-14T18:24:08;17.00;89.80
431;DHT22;202;48.764;9.172;2022-10-14T18:26:44;17.00;89.70
431;DHT22;202;48.764;9.172;2022-10-14T18:29:16;17.00;90.00
431;DHT22;202;48.764;9.172;2022-10-14T18:31:49;17.00;90.00
431;DHT22;202;48.764;9.172;2022-10-14T18:34:30;17.00;90.20
431;DHT22;202;48.764;9.172;2022-10-14T18:36:59;17.00;90.60
431;DHT22;202;48.764;9.172;2022-10-14T18:39:26;16.80;91.10
431;DHT22;202;48.764;9.172;2022-10-14T18:42:03;16.90;91.70
431;DHT22;202;48.764;9.172;2022-10-14T18:44:36;16.90;91.30
431;DHT22;202;48.764;9.172;2022-10-14T18:47:16;16.90;91.70
431;DHT22;202;48.764;9.172;2022-10-14T18:49:52;16.90;91.40
431;DHT22;202;48.764;9.172;2022-10-14T18:52:22;16.90;91.60
431;DHT22;202;48.764;9.172;2022-10-14T18:54:52;16.80;91.00
431;DHT22;202;48.764;9.172;2022-10-14T18:57:29;16.80;90.30
431;DHT22;202;48.764;9.172;2022-10-14T19:00:08;16.60;90.60
431;DHT22;202;48.764;9.172;2022-10-14T19:02:49;16.60;91.20
431;DHT22;202;48.764;9.172;2022-10-14T19:05:23;16.60;90.60
431;DHT22;202;48.764;9.172;2022-10-14T19:08:12;16.60;90.30
431;DHT22;202;48.764;9.172;2022-10-14T19:10:44;16.50;90.40
431;DHT22;202;48.764;9.172;2022-10-14T19:13:13;16.20;91.00
431;DHT22;202;48.764;9.172;2022-10-14T19:15:43;16.30;91.30
431;DHT22;202;48.764;9.172;2022-10-14T19:18:20;16.30;91.30
431;DHT22;202;48.764;9.172;2022-10-14T19:21:02;16.30;90.20
431;DHT22;202;48.764;9.172;2022-10-14T19:23:36;16.30;90.20
431;DHT22;202;48.764;9.172;2022-10-14T19:26:20;16.30;90.30
431;DHT22;202;48.764;9.172;2022-10-14T19:28:48;16.30;90.00
431;DHT22;202;48.764;9.172;2022-10-14T19:31:21;16.40;90.40
431;DHT22;202;48.764;9.172;2022-10-14T19:33:50;16.30;91.10
431;DHT22;202;48.764;9.172;2022-10-14T19:36:21;16.30;89.40